Time;durP1;ratioP1;P1;durP2;ratioP2;P2;SDS_P1;SDS_P2;PMS_P1;PMS_P2;Temp;Humidity;BMP_temperature;BMP_pressure;BME280_temperature;BME280_humidity;BME280_pressure;Samples;Min_cycle;Max_cycle;Signal;HPM_P1;HPM_P2
2023/10/04 00:00:16;;;;;;;6.80;2.10;;;;;;;-145.18;100.00;46652.59;4991671;28;20066;-64
2023/10/04 00:02:44;;;;;;;5.93;1.73;;;;;;;-145.18;100.00;46648.69;4990026;28;20490;-64
2023/10/04 00:05:10;;;;;;;5.40;1.87;;;;;;;-145.18;100.00;46648.69;4982109;28;20038;-64
2023/10/04 00:07:36;;;;;;;11.30;1.93;;;;;;;-145.18;100.00;46648.69;4990960;28;20125;-63
2023/10/04 00:10:04;;;;;;;11.97;1.87;;;;;;;-145.18;100.00;46646.72;4991855;28;20045;-64
2023/10/04 00:12:30;;;;;;;8.17;1.80;;;;;;;-145.18;100.00;46644.78;4992302;28;20069;-63
2023/10/04 00:14:56;;;;;;;8.13;2.00;;;;;;;-145.18;100.00;46642.81;4985501;28;20077;-63
2023/10/04 00:17:22;;;;;;;9.87;2.40;;;;;;;-145.18;100.00;46644.78;4994761;28;20101;-64
2023/10/04 00:19:50;;;;;;;9.67;2.07;;;;;;;-145.18;100.00;46644.78;4995168;28;20502;-64
2023/10/04 00:22:18;;;;;;;7.13;1.83;;;;;;;-145.18;100.00;46642.81;4994384;28;20046;-63
2023/10/04 00:24:44;;;;;;;12.90;2.20;;;;;;;-145.18;100.00;46642.81;4995011;28;20030;-63
2023/10/04 00:27:10;;;;;;;7.17;2.37;;;;;;;-145.18;100.00;46644.78;4981894;28;20061;-64
2023/10/04 00:29:36;;;;;;;7.93;2.00;;;;;;;-145.18;100.00;46642.81;4994563;28;20030;-64
2023/10/04 00:32:04;;;;;;;7.63;2.13;;;;;;;-145.18;100.00;46642.81;4994181;28;20023;-64
2023/10/04 00:34:29;;;;;;;4.83;1.40;;;;;;;-145.18;100.00;46638.91;4994596;28;20022;-64
2023/10/04 00:36:55;;;;;;;10.23;1.77;;;;;;;-145.18;100.00;46638.91;4987036;28;20039;-64
2023/10/04 00:39:20;;;;;;;8.07;2.10;;;;;;;-145.18;100.00;46640.88;4976290;28;20045;-65
2023/10/04 00:41:46;;;;;;;9.47;2.00;;;;;;;-145.18;100.00;46642.81;4986084;28;20023;-66
2023/10/04 00:44:12;;;;;;;7.20;2.07;;;;;;;-145.18;100.00;46636.94;4994549;28;20529;-65
2023/10/04 00:46:41;;;;;;;13.87;3.97;;;;;;;-145.18;100.00;46638.91;4993836;28;20092;-66
2023/10/04 00:49:08;;;;;;;9.70;2.20;;;;;;;-145.18;100.00;46642.81;4995048;28;20397;-66
2023/10/04 00:51:37;;;;;;;5.87;2.33;;;;;;;-145.18;100.00;46638.91;4990605;28;20448;-66
2023/10/04 00:54:07;;;;;;;8.80;1.80;;;;;;;-145.18;100.00;46638.91;4994404;28;20041;-66
2023/10/04 00:56:36;;;;;;;4.23;1.97;;;;;;;-145.18;100.00;46638.91;4993266;28;20081;-66
2023/10/04 00:59:05;;;;;;;10.77;2.23;;;;;;;-145.18;100.00;46635.00;4993940;28;20054;-65
2023/10/04 01:01:31;;;;;;;10.67;3.00;;;;;;;-145.18;100.00;46638.91;4994061;28;20121;-66
2023/10/04 01:03:59;;;;;;;15.23;2.73;;;;;;;-145.18;100.00;46638.91;4994032;28;20052;-66
2023/10/04 01:06:24;;;;;;;20.67;2.43;;;;;;;-145.18;100.00;46638.91;4993736;28;20033;-65
2023/10/04 01:08:50;;;;;;;8.23;2.83;;;;;;;-145.18;100.00;46638.91;4994424;28;20398;-66
2023/10/04 01:11:15;;;;;;;8.90;2.00;;;;;;;-145.18;100.00;46640.88;4987654;28;20072;-61
2023/10/04 01:13:41;;;;;;;5.13;1.50;;;;;;;-145.18;100.00;46636.94;4993824;28;20022;-61
2023/10/04 01:16:09;;;;;;;11.77;2.00;;;;;;;-145.18;100.00;46638.91;4993711;28;20064;-61
2023/10/04 01:18:39;;;;;;;15.07;2.80;;;;;;;-145.18;100.00;46636.94;4993784;28;20026;-61
2023/10/04 01:21:05;;;;;;;8.40;2.00;;;;;;;-145.18;100.00;46638.91;4993228;28;20026;-61
2023/10/04 01:23:31;;;;;;;7.90;1.97;;;;;;;-145.18;100.00;46660.41;4993163;28;20041;-61
2023/10/04 01:25:56;;;;;;;12.07;2.17;;;;;;;-145.18;100.00;46635.00;4992318;28;20394;-61
2023/10/04 01:28:30;;;;;;;9.27;2.50;;;;;;;-145.18;100.00;46636.94;4993938;28;20039;-61
2023/10/04 01:30:59;;;;;;;8.93;2.27;;;;;;;-145.18;100.00;46636.94;4993564;28;20034;-61
2023/10/04 01:33:25;;;;;;;10.20;2.30;;;;;;;-145.18;100.00;46644.78;4982256;28;20478;-61
2023/10/04 01:35:54;;;;;;;12.57;2.23;;;;;;;-145.18;100.00;46640.88;4991888;28;20054;-61
2023/10/04 01:38:33;;;;;;;6.27;1.77;;;;;;;-145.18;100.00;46640.88;4993503;28;20157;-61
2023/10/04 01:40:59;;;;;;;11.00;2.17;;;;;;;-145.18;100.00;46638.91;4980494;28;20030;-61
2023/10/04 01:43:25;;;;;;;8.83;2.43;;;;;;;-145.18;100.00;46638.91;4993596;28;20446;-61
2023/10/04 01:45:57;;;;;;;8.43;1.60;;;;;;;-145.18;100.00;46642.81;4981205;28;20537;-61
2023/10/04 01:48:22;;;;;;;7.90;2.00;;;;;;;-145.18;100.00;46644.78;4993356;28;20044;-61
2023/10/04 01:50:52;;;;;;;9.03;2.50;;;;;;;-145.18;100.00;46644.78;4993559;28;20109;-61
2023/10/04 01:53:20;;;;;;;5.30;1.80;;;;;;;-145.18;100.00;46642.81;4992499;28;20073;-61
2023/10/04 01:55:46;;;;;;;9.07;2.03;;;;;;;-145.18;100.00;46638.91;4991461;28;20026;-61
2023/10/04 01:58:13;;;;;;;10.87;2.00;;;;;;;-145.18;100.00;46642.81;4993379;28;20371;-61
2023/10/04 02:00:38;;;;;;;8.27;2.20;;;;;;;-145.18;100.00;46642.81;4992454;28;20461;-61
2023/10/04 02:03:04;;;;;;;14.17;2.67;;;;;;;-145.18;100.00;46642.81;4993381;28;20038;-61
2023/10/04 02:05:37;;;;;;;7.10;2.13;;;;;;;-145.18;100.00;46644.78;4992724;28;20509;-61
2023/10/04 02:08:09;;;;;;;7.27;2.27;;;;;;;-145.18;100.00;46642.81;4992182;28;20093;-60
2023/10/04 02:10:38;;;;;;;11.30;2.57;;;;;;;-145.18;100.00;46646.72;4992653;28;20034;-60
2023/10/04 02:13:08;;;;;;;7.33;2.77;;;;;;;-145.18;100.00;46635.00;4990891;28;20411;-60
2023/10/04 02:15:35;;;;;;;13.43;2.80;;;;;;;-145.18;100.00;46636.94;4992838;28;20022;-60
2023/10/04 02:18:01;;;;;;;8.50;2.40;;;;;;;-145.18;100.00;46636.94;4992931;28;20041;-61
2023/10/04 02:20:28;;;;;;;10.33;2.40;;;;;;;-145.18;100.00;46642.81;4992703;28;20030;-65
2023/10/04 02:23:00;;;;;;;14.43;2.30;;;;;;;-145.18;100.00;46644.78;4992497;28;20030;-65
2023/10/04 02:25:26;;;;;;;9.63;2.60;;;;;;;-145.18;100.00;46640.88;4989945;28;20045;-65
2023/10/04 02:27:52;;;;;;;9.00;2.40;;;;;;;-145.18;100.00;46636.94;4990946;28;20062;-65
2023/10/04 02:30:22;;;;;;;11.00;2.90;;;;;;;-145.18;100.00;46635.00;4991878;28;20478;-65
2023/10/04 02:32:48;;;;;;;8.90;3.00;;;;;;;-145.18;100.00;46638.91;4992123;28;20410;-65
2023/10/04 02:35:21;;;;;;;12.60;2.50;;;;;;;-145.18;100.00;46635.00;4992511;28;20156;-65
2023/10/04 02:37:48;;;;;;;9.20;2.53;;;;;;;-145.18;100.00;46660.41;4992357;28;20034;-66
2023/10/04 02:40:16;;;;;;;14.70;2.47;;;;;;;-145.18;100.00;46640.88;4992067;28;20030;-65
2023/10/04 02:42:47;;;;;;;8.27;2.37;;;;;;;-145.18;100.00;46638.91;4983755;28;20081;-65
2023/10/04 02:45:18;;;;;;;14.53;2.77;;;;;;;-145.18;100.00;46636.94;4986369;28;20485;-64
2023/10/04 02:47:45;;;;;;;7.87;2.43;;;;;;;-145.18;100.00;46636.94;4992229;28;20037;-65
2023/10/04 02:50:10;;;;;;;13.43;2.33;;;;;;;-145.18;100.00;46635.00;4992208;28;20135;-65
2023/10/04 02:52:36;;;;;;;9.30;2.47;;;;;;;-145.18;100.00;46636.94;4991993;28;20092;-64
2023/10/04 02:55:02;;;;;;;9.73;3.93;;;;;;;-145.18;100.00;46636.94;4991974;28;20033;-63
2023/10/04 02:57:28;;;;;;;9.17;2.27;;;;;;;-145.18;100.00;46638.91;4991099;28;20597;-63
2023/10/04 02:59:54;;;;;;;10.13;2.43;;;;;;;-145.18;100.00;46636.94;4992199;28;20041;-64
2023/10/04 03:02:21;;;;;;;12.97;2.37;;;;;;;-145.18;100.00;46635.00;4992022;28;20109;-63
2023/10/04 03:04:49;;;;;;;7.13;1.97;;;;;;;-145.18;100.00;46635.00;4991703;28;20034;-64
2023/10/04 03:07:15;;;;;;;10.83;2.63;;;;;;;-145.18;100.00;46636.94;4991744;28;20376;-63
2023/10/04 03:09:42;;;;;;;4.20;1.87;;;;;;;-145.18;100.00;46638.91;4991889;28;20048;-64
2023/10/04 03:12:10;;;;;;;11.20;2.07;;;;;;;-145.18;100.00;46638.91;4990722;28;20038;-63
2023/10/04 03:14:36;;;;;;;11.60;2.20;;;;;;;-145.18;100.00;46642.81;4983834;28;20026;-63
2023/10/04 03:17:02;;;;;;;14.77;2.23;;;;;;;-145.18;100.00;46636.94;4991959;28;20030;-64
2023/10/04 03:19:27;;;;;;;7.03;2.20;;;;;;;-145.18;100.00;46642.81;4991615;28;20125;-64
2023/10/04 03:21:53;;;;;;;7.40;1.83;;;;;;;-145.18;100.00;46635.00;4991810;28;20109;-65
2023/10/04 03:24:18;;;;;;;7.13;2.13;;;;;;;-145.18;100.00;46640.88;4991161;28;20060;-65
2023/10/04 03:26:44;;;;;;;17.23;3.03;;;;;;;-145.18;100.00;46635.00;4990253;28;20101;-66
2023/10/04 03:29:11;;;;;;;14.67;2.63;;;;;;;-145.18;100.00;46636.94;4991436;28;20046;-65
2023/10/04 03:31:39;;;;;;;7.87;2.20;;;;;;;-145.18;100.00;46638.91;4991906;28;20030;-61
2023/10/04 03:34:07;;;;;;;9.53;2.67;;;;;;;-145.18;100.00;46636.94;4990859;28;20109;-61
2023/10/04 03:36:34;;;;;;;9.67;2.20;;;;;;;-145.18;100.00;46636.94;4990239;28;20045;-61
2023/10/04 03:39:00;;;;;;;5.80;2.20;;;;;;;-145.18;100.00;46638.91;4979849;28;20434;-61
2023/10/04 03:41:25;;;;;;;8.63;2.37;;;;;;;-145.18;100.00;46635.00;4991428;28;20035;-61
2023/10/04 03:43:51;;;;;;;6.13;2.33;;;;;;;-145.18;100.00;46636.94;4990126;28;20031;-61
2023/10/04 03:46:17;;;;;;;11.67;2.37;;;;;;;-145.18;100.00;46642.81;4981531;28;20066;-61
2023/10/04 03:48:43;;;;;;;10.87;2.67;;;;;;;-145.18;100.00;46633.06;4995415;28;20022;-62
2023/10/04 03:51:09;;;;;;;6.60;2.57;;;;;;;-145.18;100.00;46635.00;4989944;28;20133;-61
2023/10/04 03:53:34;;;;;;;15.03;3.47;;;;;;;-145.18;100.00;46635.00;4995072;28;20037;-61
2023/10/04 03:56:00;;;;;;;11.67;2.77;;;;;;;-145.18;100.00;46635.00;4993900;28;20022;-61
2023/10/04 03:58:26;;;;;;;11.47;2.70;;;;;;;-145.18;100.00;46636.94;4992174;28;20022;-61
2023/10/04 04:00:52;;;;;;;13.43;2.50;;;;;;;-145.18;100.00;46636.94;4994304;28;20030;-61
2023/10/04 04:03:18;;;;;;;9.83;2.53;;;;;;;-145.18;100.00;46636.94;4995382;28;20533;-61
2023/10/04 04:05:44;;;;;;;8.10;2.47;;;;;;;-145.18;100.00;46635.00;4994577;28;20502;-61
2023/10/04 04:08:13;;;;;;;9.83;2.60;;;;;;;-145.18;100.00;46635.00;4993537;28;20038;-61
2023/10/04 04:10:40;;;;;;;9.13;2.17;;;;;;;-145.18;100.00;46635.00;4995358;28;20062;-61
2023/10/04 04:13:06;;;;;;;9.00;3.47;;;;;;;-145.18;100.00;46635.00;4994882;28;20026;-61
2023/10/04 04:15:35;;;;;;;9.83;2.60;;;;;;;-145.18;100.00;46638.91;4992662;28;20042;-61
2023/10/04 04:18:07;;;;;;;6.90;2.30;;;;;;;-145.18;100.00;46633.06;4989981;28;20037;-61
2023/10/04 04:20:35;;;;;;;12.80;3.13;;;;;;;-145.18;100.00;46636.94;4995132;28;20034;-61
2023/10/04 04:23:03;;;;;;;9.40;3.50;;;;;;;-145.18;100.00;46635.00;4993936;28;20045;-61
2023/10/04 04:25:29;;;;;;;8.50;3.17;;;;;;;-145.18;100.00;46660.41;4994382;28;20096;-61
2023/10/04 04:27:56;;;;;;;9.57;2.67;;;;;;;-145.18;100.00;46660.41;4994540;28;20074;-61
2023/10/04 04:30:27;;;;;;;14.47;2.93;;;;;;;-145.18;100.00;46660.41;4994420;28;20053;-61
2023/10/04 04:32:56;;;;;;;6.77;2.63;;;;;;;-145.18;100.00;46660.41;4994521;28;20125;-61
2023/10/04 04:38:19;;;;;;;12.90;3.50;;;;;;;-145.18;100.00;46635.00;4994113;28;20505;-61
2023/10/04 04:40:48;;;;;;;15.25;3.28;;;;;;;-145.18;100.00;46660.41;4994134;28;20054;-61
2023/10/04 04:45:51;;;;;;;12.00;3.05;;;;;;;-145.18;100.00;46635.00;4992868;28;20034;-61
2023/10/04 04:48:24;;;;;;;14.47;3.53;;;;;;;-145.18;100.00;46660.41;4994380;28;20368;-61
2023/10/04 04:50:54;;;;;;;14.70;3.20;;;;;;;-145.18;100.00;46660.41;4989190;28;20451;-61
2023/10/04 04:53:29;;;;;;;15.23;3.87;;;;;;;-145.18;100.00;46635.00;4989582;28;20033;-61
2023/10/04 04:55:55;;;;;;;10.23;3.23;;;;;;;-145.18;100.00;46660.41;4993799;28;20028;-61
2023/10/04 04:58:26;;;;;;;14.13;3.07;;;;;;;-145.18;100.00;46660.41;4994148;28;20041;-61
2023/10/04 05:01:00;;;;;;;16.47;3.40;;;;;;;-145.18;100.00;46660.41;4993505;28;20073;-61
2023/10/04 05:03:26;;;;;;;16.20;3.40;;;;;;;-145.18;100.00;46633.06;4994368;28;20422;-61
2023/10/04 05:05:55;;;;;;;16.07;3.70;;;;;;;-145.18;100.00;46660.41;4993845;28;20363;-61
2023/10/04 05:08:21;;;;;;;14.27;3.03;;;;;;;-145.18;100.00;46660.41;4988757;28;20046;-61
2023/10/04 05:10:49;;;;;;;11.97;2.83;;;;;;;-145.18;100.00;46633.06;4994287;28;20386;-61
2023/10/04 05:13:17;;;;;;;15.00;3.20;;;;;;;-145.18;100.00;46660.41;4993633;28;20442;-61
2023/10/04 05:15:43;;;;;;;10.93;3.20;;;;;;;-145.18;100.00;46660.41;4994011;28;20031;-61
2023/10/04 05:18:15;;;;;;;15.60;3.60;;;;;;;-145.18;100.00;46636.94;4994194;28;20084;-61
2023/10/04 05:20:49;;;;;;;13.67;3.57;;;;;;;-145.18;100.00;46660.41;4993774;28;20133;-61
2023/10/04 05:23:14;;;;;;;12.10;3.70;;;;;;;-145.18;100.00;46660.41;4993381;28;20030;-61
2023/10/04 05:25:40;;;;;;;9.20;3.20;;;;;;;-145.18;100.00;46660.41;4993900;28;20026;-61
2023/10/04 05:28:09;;;;;;;13.20;2.90;;;;;;;-145.18;100.00;46660.41;4993784;28;20096;-61
2023/10/04 05:30:37;;;;;;;10.27;3.10;;;;;;;-145.18;100.00;46660.41;4993655;28;20076;-61
2023/10/04 05:33:03;;;;;;;6.73;3.10;;;;;;;-145.18;100.00;46660.41;4993763;28;20054;-61
2023/10/04 05:35:28;;;;;;;10.13;3.00;;;;;;;-145.18;100.00;46660.41;4993663;28;20064;-61
2023/10/04 05:37:54;;;;;;;16.00;4.17;;;;;;;-145.18;100.00;46660.41;4993144;28;20054;-61
2023/10/04 05:40:27;;;;;;;15.33;4.10;;;;;;;-145.18;100.00;46660.41;4992422;28;20095;-61
2023/10/04 05:42:53;;;;;;;14.03;3.10;;;;;;;-145.18;100.00;46660.41;4983652;28;20113;-61
2023/10/04 05:45:22;;;;;;;17.40;3.93;;;;;;;-145.18;100.00;46660.41;4982797;28;20035;-61
2023/10/04 05:47:50;;;;;;;16.00;3.40;;;;;;;-145.18;100.00;46660.41;4993046;28;20089;-61
2023/10/04 05:50:21;;;;;;;15.70;3.90;;;;;;;-145.18;100.00;46660.41;4993598;28;20038;-67
2023/10/04 05:52:50;;;;;;;14.77;3.93;;;;;;;-145.18;100.00;46660.41;4993013;28;20080;-67
2023/10/04 05:55:20;;;;;;;13.37;3.50;;;;;;;-145.18;100.00;46660.41;4992991;28;20479;-66
2023/10/04 05:57:47;;;;;;;9.90;4.40;;;;;;;-145.18;100.00;46660.41;4993257;28;20034;-67
2023/10/04 06:00:28;;;;;;;12.30;3.30;;;;;;;-145.18;100.00;46660.41;4992459;28;20556;-66
2023/10/04 06:03:19;;;;;;;14.50;4.30;;;;;;;-145.18;100.00;46660.41;4982787;28;20568;-67
2023/10/04 06:05:45;;;;;;;13.97;3.93;;;;;;;-145.18;100.00;46660.41;4989768;28;20041;-67
2023/10/04 06:08:15;;;;;;;15.23;3.90;;;;;;;-145.18;100.00;46660.41;4992300;28;20034;-67
2023/10/04 06:10:44;;;;;;;16.40;3.93;;;;;;;-145.18;100.00;46660.41;4992893;28;20038;-67
2023/10/04 06:13:13;;;;;;;13.50;4.07;;;;;;;-145.18;100.00;46631.09;4991717;28;20596;-67
2023/10/04 06:15:44;;;;;;;15.77;4.00;;;;;;;-145.18;100.00;46631.09;4992296;28;20031;-67
2023/10/04 06:18:12;;;;;;;16.40;4.17;;;;;;;-145.18;100.00;46660.41;4992864;28;20116;-67
2023/10/04 06:20:38;;;;;;;14.00;4.37;;;;;;;-145.18;100.00;46629.13;4993023;28;20037;-66
2023/10/04 06:23:05;;;;;;;23.13;4.53;;;;;;;-145.18;100.00;46631.09;4991885;28;20038;-67
2023/10/04 06:25:34;;;;;;;12.87;4.67;;;;;;;-145.18;100.00;46627.19;4992566;28;20037;-67
2023/10/04 06:28:00;;;;;;;18.57;5.67;;;;;;;-145.18;100.00;46629.13;4992269;28;20058;-67
2023/10/04 06:30:31;;;;;;;13.83;4.23;;;;;;;-145.18;100.00;46629.13;4992453;28;20031;-67
2023/10/04 06:32:59;;;;;;;14.23;4.27;;;;;;;-145.18;100.00;46629.13;4992255;28;20037;-67
2023/10/04 06:35:26;;;;;;;16.30;3.90;;;;;;;-145.18;100.00;46627.19;4992392;28;20033;-67
2023/10/04 06:37:57;;;;;;;27.87;5.50;;;;;;;-145.18;100.00;46633.06;4980854;28;20373;-68
2023/10/04 06:40:23;;;;;;;16.07;4.17;;;;;;;-145.18;100.00;46627.19;4992623;28;20457;-67
2023/10/04 06:42:51;;;;;;;11.80;4.53;;;;;;;-145.18;100.00;46631.09;4992288;28;20150;-67
2023/10/04 06:45:18;;;;;;;14.03;4.90;;;;;;;-145.18;100.00;46625.22;4992587;28;20089;-67
2023/10/04 06:47:45;;;;;;;11.83;4.37;;;;;;;-145.18;100.00;46627.19;4992439;28;20026;-67
2023/10/04 06:50:18;;;;;;;15.53;4.70;;;;;;;-145.18;100.00;46625.22;4992356;28;20494;-67
2023/10/04 06:52:44;;;;;;;20.63;5.50;;;;;;;-145.18;100.00;46629.13;4992189;28;20084;-67
2023/10/04 06:55:11;;;;;;;17.37;5.33;;;;;;;-145.18;100.00;46621.31;4992566;28;20081;-67
2023/10/04 06:57:37;;;;;;;12.30;5.10;;;;;;;-145.18;100.00;46623.28;4992555;28;20036;-67
2023/10/04 07:00:12;;;;;;;20.10;5.30;;;;;;;-145.18;100.00;46625.22;4992357;28;20036;-61
2023/10/04 07:02:40;;;;;;;12.13;4.05;;;;;;;-145.18;100.00;46625.22;4980137;28;20058;-61
2023/10/04 07:05:06;;;;;;;15.10;5.37;;;;;;;-145.18;100.00;46625.22;4992206;28;20034;-61
2023/10/04 07:07:32;;;;;;;12.17;5.30;;;;;;;-145.18;100.00;46623.28;4991076;28;20022;-61
2023/10/04 07:09:57;;;;;;;20.20;5.20;;;;;;;-145.18;100.00;46625.22;4991895;28;20040;-61
2023/10/04 07:12:22;;;;;;;21.03;4.90;;;;;;;-145.18;100.00;46625.22;4991011;28;20120;-61
2023/10/04 07:14:49;;;;;;;13.23;4.17;;;;;;;-145.18;100.00;46625.22;4990377;28;20031;-61
2023/10/04 07:17:19;;;;;;;16.07;4.70;;;;;;;-145.18;100.00;46625.22;4992128;28;20026;-61
2023/10/04 07:19:44;;;;;;;21.33;4.73;;;;;;;-145.18;100.00;46623.28;5006873;28;20390;-61
2023/10/04 07:22:09;;;;;;;20.93;4.70;;;;;;;-145.18;100.00;46623.28;4996097;28;20030;-61
2023/10/04 07:24:37;;;;;;;16.67;4.47;;;;;;;-145.18;100.00;46627.19;4995883;28;20038;-61
2023/10/04 07:27:03;;;;;;;16.10;4.80;;;;;;;-145.18;100.00;46625.22;4978837;28;20465;-61
2023/10/04 07:29:29;;;;;;;18.63;4.47;;;;;;;-145.18;100.00;46629.13;4995466;28;20176;-61
2023/10/04 07:31:56;;;;;;;14.03;4.00;;;;;;;-145.18;100.00;46631.09;4995568;28;20041;-61
2023/10/04 07:34:23;;;;;;;19.50;4.53;;;;;;;-145.18;100.00;46633.06;4995547;28;20057;-61
2023/10/04 07:36:51;;;;;;;18.93;4.50;;;;;;;-145.18;100.00;46636.94;4978829;28;20027;-61
2023/10/04 07:39:16;;;;;;;18.30;4.30;;;;;;;-145.18;100.00;46633.06;4995770;28;20083;-61
2023/10/04 07:41:42;;;;;;;11.87;4.40;;;;;;;-145.18;100.00;46633.06;4994843;28;20033;-61
2023/10/04 07:44:09;;;;;;;19.17;4.73;;;;;;;-145.18;100.00;46636.94;4986654;28;20180;-61
2023/10/04 07:46:34;;;;;;;10.80;3.87;;;;;;;-145.18;100.00;46635.00;4995664;28;20517;-61
2023/10/04 07:49:00;;;;;;;16.33;4.27;;;;;;;-145.18;100.00;46635.00;4994110;28;20026;-61
2023/10/04 07:51:26;;;;;;;12.93;3.93;;;;;;;-145.18;100.00;46642.81;4995365;28;20070;-61
2023/10/04 07:53:52;;;;;;;16.47;4.27;;;;;;;-145.18;100.00;46640.88;4994008;28;20113;-61
2023/10/04 07:56:18;;;;;;;16.17;5.20;;;;;;;-145.18;100.00;46642.81;4995027;28;20415;-61
2023/10/04 07:58:43;;;;;;;20.97;4.50;;;;;;;-145.18;100.00;46642.81;4995219;28;20069;-61
2023/10/04 08:01:09;;;;;;;13.87;3.83;;;;;;;-145.18;100.00;46648.69;4995782;28;20061;-61
2023/10/04 08:03:35;;;;;;;12.50;3.87;;;;;;;-145.18;100.00;46644.78;4995166;28;20399;-61
2023/10/04 08:06:08;;;;;;;12.47;3.80;;;;;;;-145.18;100.00;46648.69;4995572;28;20105;-61
2023/10/04 08:08:33;;;;;;;16.93;4.10;;;;;;;-145.18;100.00;46644.78;4994989;28;20050;-61
2023/10/04 08:10:59;;;;;;;15.27;4.20;;;;;;;-145.18;100.00;46648.69;4995594;28;20057;-60
2023/10/04 08:13:24;;;;;;;11.83;4.03;;;;;;;-145.18;100.00;46646.72;4993371;28;20456;-60
2023/10/04 08:15:51;;;;;;;14.60;3.70;;;;;;;-145.18;100.00;46648.69;4995428;28;20029;-61
2023/10/04 08:18:16;;;;;;;15.63;4.10;;;;;;;-145.18;100.00;46652.59;4995258;28;20042;-61
2023/10/04 08:20:42;;;;;;;16.33;3.97;;;;;;;-145.18;100.00;46652.59;4995220;28;20022;-60
2023/10/04 08:23:08;;;;;;;23.60;5.20;;;;;;;-145.18;100.00;46654.53;4994982;28;20417;-60
2023/10/04 08:25:35;;;;;;;11.10;3.07;;;;;;;-145.18;100.00;46646.72;4995242;28;20076;-60
2023/10/04 08:28:01;;;;;;;18.53;4.77;;;;;;;-145.18;100.00;46654.53;4994377;28;20564;-60
2023/10/04 08:30:27;;;;;;;20.87;4.87;;;;;;;-145.18;100.00;46648.69;4994754;28;20105;-60
2023/10/04 08:32:53;;;;;;;15.07;4.03;;;;;;;-145.18;100.00;46650.63;4994347;28;20019;-61
2023/10/04 08:35:24;;;;;;;13.80;4.20;;;;;;;-145.18;100.00;46656.50;4994995;28;20053;-61
2023/10/04 08:37:53;;;;;;;17.43;5.07;;;;;;;-145.18;100.00;46654.53;4994584;28;20072;-61
2023/10/04 08:40:19;;;;;;;14.10;4.27;;;;;;;-145.18;100.00;46654.53;4986149;28;20034;-61
2023/10/04 08:42:50;;;;;;;19.03;4.33;;;;;;;-145.18;100.00;46654.53;4994711;28;20064;-61
2023/10/04 08:45:17;;;;;;;17.20;4.07;;;;;;;-145.18;100.00;46660.41;4984683;28;20038;-61
2023/10/04 08:47:50;;;;;;;18.20;4.30;;;;;;;-145.18;100.00;46662.34;4994027;28;20479;-60
2023/10/04 08:50:23;;;;;;;13.63;3.67;;;;;;;-145.18;100.00;46660.41;4994694;28;20360;-60
2023/10/04 08:52:53;;;;;;;12.90;3.23;;;;;;;-145.18;100.00;46664.31;4983171;28;20022;-60
2023/10/04 08:55:21;;;;;;;14.30;4.13;;;;;;;-145.18;100.00;46660.41;4994196;28;20026;-61
2023/10/04 08:57:50;;;;;;;14.00;4.17;;;;;;;-145.18;100.00;46660.41;4994467;28;20033;-61
2023/10/04 09:00:22;;;;;;;15.23;4.00;;;;;;;-145.18;100.00;46666.25;4994056;28;20046;-61
2023/10/04 09:02:50;;;;;;;15.97;3.83;;;;;;;-145.18;100.00;46662.34;4993973;28;20502;-61
2023/10/04 09:05:23;;;;;;;9.37;4.03;;;;;;;-145.18;100.00;46662.34;4994018;28;20019;-61
2023/10/04 09:07:50;;;;;;;13.47;3.57;;;;;;;-145.18;100.00;46662.34;4994234;28;20490;-61
2023/10/04 09:10:17;;;;;;;11.87;3.47;;;;;;;-145.18;100.00;46664.31;4993911;28;20034;-61
2023/10/04 09:12:43;;;;;;;22.23;4.67;;;;;;;-145.18;100.00;46666.25;4994402;28;20054;-61
2023/10/04 09:15:10;;;;;;;16.90;3.87;;;;;;;-145.18;100.00;46664.31;4993843;28;20510;-61
2023/10/04 09:17:47;;;;;;;13.30;4.00;;;;;;;-145.18;100.00;46666.25;4993664;28;20053;-61
2023/10/04 09:20:16;;;;;;;15.13;4.10;;;;;;;-145.18;100.00;46670.16;4991476;28;20046;-61
2023/10/04 09:22:42;;;;;;;18.10;4.57;;;;;;;-145.18;100.00;46664.31;4993879;28;20034;-61
2023/10/04 09:25:09;;;;;;;14.60;4.37;;;;;;;-145.18;100.00;46668.22;4994112;28;20022;-61
2023/10/04 09:27:35;;;;;;;15.67;3.97;;;;;;;-145.18;100.00;46670.16;4993532;28;20050;-60
2023/10/04 09:30:02;;;;;;;16.13;3.87;;;;;;;-145.18;100.00;46670.16;4993635;28;20095;-61
2023/10/04 09:32:42;;;;;;;15.93;4.57;;;;;;;-145.18;100.00;46670.16;4992889;28;20026;-60
2023/10/04 09:35:08;;;;;;;15.33;4.57;;;;;;;-145.18;100.00;46670.16;4993708;28;20018;-61
2023/10/04 09:37:34;;;;;;;19.40;4.83;;;;;;;-145.18;100.00;46670.16;4992854;28;20211;-61
2023/10/04 09:40:12;;;;;;;15.57;4.33;;;;;;;-145.18;100.00;46672.13;4993729;28;20034;-61
2023/10/04 09:42:51;;;;;;;67.57;22.67;;;;;;;-145.18;100.00;46674.06;4992846;28;20488;-61
2023/10/04 09:45:20;;;;;;;29.13;14.33;;;;;;;-145.18;100.00;46679.94;4977932;28;20483;-60
2023/10/04 09:47:49;;;;;;;20.07;6.50;;;;;;;-145.18;100.00;46677.97;4993318;28;20117;-61
2023/10/04 09:50:26;;;;;;;14.27;3.93;;;;;;;-145.18;100.00;46681.88;4993459;28;20486;-61
2023/10/04 09:52:52;;;;;;;11.80;4.23;;;;;;;-145.18;100.00;46685.78;4983719;28;20506;-61
2023/10/04 09:55:21;;;;;;;13.07;4.23;;;;;;;-145.18;100.00;46683.84;4993084;28;20515;-61
2023/10/04 09:57:48;;;;;;;14.20;4.60;;;;;;;-145.18;100.00;46683.84;4981482;28;20022;-61
2023/10/04 10:00:17;;;;;;;13.50;4.13;;;;;;;-145.18;100.00;46681.88;4992969;28;20426;-61
2023/10/04 10:02:53;;;;;;;15.43;4.30;;;;;;;-145.18;100.00;46681.88;4993466;28;20022;-61
2023/10/04 10:05:27;;;;;;;14.47;3.70;;;;;;;-145.18;100.00;46677.97;4992553;28;20022;-61
2023/10/04 10:07:54;;;;;;;10.60;3.80;;;;;;;-145.18;100.00;46681.88;4993246;28;20478;-61
2023/10/04 10:10:21;;;;;;;14.00;4.17;;;;;;;-145.18;100.00;46685.78;4980054;28;20490;-61
2023/10/04 10:12:50;;;;;;;16.00;3.87;;;;;;;-145.18;100.00;46687.75;4993448;28;20044;-60
2023/10/04 10:15:18;;;;;;;15.93;4.43;;;;;;;-145.18;100.00;46681.88;4992118;28;20430;-61
2023/10/04 10:17:46;;;;;;;15.50;4.00;;;;;;;-145.18;100.00;46685.78;4992722;28;20114;-61
2023/10/04 10:20:12;;;;;;;13.70;3.93;;;;;;;-145.18;100.00;46681.88;4992871;28;20557;-61
2023/10/04 10:22:58;;;;;;;14.27;3.63;;;;;;;-145.18;100.00;46662.34;4992805;28;20034;-61
2023/10/04 10:25:25;;;;;;;13.25;3.70;;;;;;;-145.18;100.00;46625.22;4981968;28;20105;-61
2023/10/04 10:27:57;;;;;;;11.20;3.60;;;;;;;-145.18;100.00;46597.88;4987255;28;20043;-61
2023/10/04 10:30:23;;;;;;;10.03;3.07;;;;;;;-145.18;100.00;46597.88;4992849;28;20045;-61
2023/10/04 10:32:53;;;;;;;15.00;4.37;;;;;;;-145.18;100.00;46629.13;4992338;28;20394;-60
2023/10/04 10:35:51;;;;;;;9.57;3.53;;;;;;;-145.18;100.00;46638.91;4991401;28;20397;-61
2023/10/04 10:38:43;;;;;;;12.10;3.43;;;;;;;-145.18;100.00;46652.59;4987161;28;20046;-61
2023/10/04 10:41:29;;;;;;;14.50;3.67;;;;;;;-145.18;100.00;46672.13;4988985;28;20050;-61
2023/10/04 10:44:20;;;;;;;16.17;3.78;;;;;;;-145.18;100.00;46676.03;4992046;28;20482;-61
2023/10/04 10:47:24;;;;;;;12.90;3.40;;;;;;;-145.18;100.00;46652.59;4992634;28;20076;-61
2023/10/04 10:49:57;;;;;;;10.37;3.57;;;;;;;-145.18;100.00;46593.97;4992361;28;20509;-60
2023/10/04 10:52:26;;;;;;;11.30;3.53;;;;;;;-145.18;100.00;46568.59;4989188;28;20022;-60
2023/10/04 10:54:56;;;;;;;13.37;3.90;;;;;;;-145.18;100.00;46556.88;4992063;28;20050;-60
2023/10/04 10:57:23;;;;;;;11.37;3.47;;;;;;;-145.18;100.00;46552.97;4992380;28;20057;-61
2023/10/04 10:59:53;;;;;;;13.03;4.30;;;;;;;-145.18;100.00;46554.91;4992009;28;20510;-60
2023/10/04 11:02:20;;;;;;;11.27;3.87;;;;;;;-145.18;100.00;46564.69;4992431;28;20057;-60
2023/10/04 11:04:45;;;;;;;16.47;3.63;;;;;;;-145.18;100.00;46566.63;4992269;28;20018;-61
2023/10/04 11:07:14;;;;;;;14.23;4.57;;;;;;;-145.18;100.00;46564.69;4992307;28;20446;-61
2023/10/04 11:09:39;;;;;;;12.83;4.27;;;;;;;-145.18;100.00;46568.59;4992105;28;20045;-61
2023/10/04 11:12:08;;;;;;;11.50;3.30;;;;;;;-145.18;100.00;46570.53;4990654;28;20034;-60
2023/10/04 11:14:35;;;;;;;11.23;3.80;;;;;;;-145.18;100.00;46576.41;4991910;28;20096;-60